Time;durP1;ratioP1;P1;durP2;ratioP2;P2;SDS_P1;SDS_P2;PMS_P1;PMS_P2;Temp;Humidity;BMP_temperature;BMP_pressure;BME280_temperature;BME280_humidity;BME280_pressure;Samples;Min_cycle;Max_cycle;Signal;HPM_P1;HPM_P2
2022/09/12 00:03:21;;;;;;;0.80;0.60;;;22.00;57.60;;;;;;20711006;28;20396;-76
2022/09/12 00:13:22;;;;;;;2.88;1.45;;;22.00;57.60;;;;;;20710913;28;20504;-77
2022/09/12 00:23:22;;;;;;;0.95;0.80;;;22.00;57.50;;;;;;20710015;28;20742;-76
2022/09/12 00:33:23;;;;;;;1.00;0.70;;;22.00;57.40;;;;;;20724897;28;20038;-77
2022/09/12 00:43:41;;;;;;;1.05;0.82;;;22.00;57.30;;;;;;20724525;28;20100;-77
2022/09/12 00:53:42;;;;;;;2.80;0.90;;;22.00;57.20;;;;;;20723919;28;20481;-76
2022/09/12 01:03:43;;;;;;;0.93;0.93;;;21.90;57.70;;;;;;20722926;28;20103;-76
2022/09/12 01:13:43;;;;;;;0.60;0.60;;;21.90;57.00;;;;;;20722714;28;20033;-76
2022/09/12 01:23:52;;;;;;;1.10;0.70;;;21.90;56.90;;;;;;20706706;28;20124;-76
2022/09/12 01:34:11;;;;;;;1.02;0.70;;;21.90;56.80;;;;;;21039265;23;20526;-77
2022/09/12 01:44:43;;;;;;;0.80;0.70;;;21.90;56.70;;;;;;20656605;28;20392;-76
2022/09/12 01:55:00;;;;;;;0.73;0.50;;;21.90;56.50;;;;;;20656384;28;20511;-76
2022/09/12 02:05:13;;;;;;;0.47;0.47;;;21.90;56.50;;;;;;20625944;28;20121;-76
2022/09/12 02:15:14;;;;;;;0.55;0.55;;;21.90;56.40;;;;;;20621304;28;20046;-77
2022/09/12 02:25:16;;;;;;;1.05;0.70;;;21.90;56.30;;;;;;20622096;28;20511;-76
2022/09/12 02:35:36;;;;;;;1.02;0.80;;;21.90;56.20;;;;;;20621304;28;20034;-75
2022/09/12 02:45:36;;;;;;;0.70;0.60;;;21.90;56.10;;;;;;20637008;28;20042;-76
2022/09/12 02:55:38;;;;;;;0.57;0.55;;;21.90;56.00;;;;;;20636512;28;20413;-77
2022/09/12 03:05:55;;;;;;;1.05;0.90;;;21.90;55.90;;;;;;20618911;28;20035;-77
2022/09/12 03:16:14;;;;;;;3.03;1.20;;;21.90;55.80;;;;;;20619515;28;20034;-76
2022/09/12 03:26:19;;;;;;;3.03;1.15;;;21.80;55.70;;;;;;20634188;28;20125;-77
2022/09/12 03:36:24;;;;;;;1.97;1.00;;;21.80;55.60;;;;;;20633340;28;20096;-76
2022/09/12 03:46:24;;;;;;;;;;;21.80;55.60;;;;;;20616424;28;20038;-76
2022/09/12 03:56:25;;;;;;;1.38;0.98;;;21.80;55.50;;;;;;20663326;28;19913;-77
2022/09/12 04:06:25;;;;;;;1.20;1.10;;;21.80;55.50;;;;;;20630720;28;20113;-77
2022/09/12 04:16:26;;;;;;;2.55;1.00;;;21.90;55.40;;;;;;20613597;28;20038;-75
2022/09/12 04:26:28;;;;;;;3.03;1.00;;;21.80;55.30;;;;;;20611592;28;20104;-75
2022/09/12 04:36:29;;;;;;;1.80;1.10;;;21.80;55.20;;;;;;20642669;28;20069;-75
2022/09/12 04:46:32;;;;;;;3.20;1.55;;;21.80;55.10;;;;;;20629713;28;20133;-77
2022/09/12 04:56:35;;;;;;;1.75;1.20;;;21.80;55.10;;;;;;20629815;28;20061;-79
2022/09/12 05:06:36;;;;;;;2.60;1.00;;;21.80;54.80;;;;;;20611750;28;20480;-76
2022/09/12 05:16:36;;;;;;;2.35;1.63;;;21.80;54.40;;;;;;20630237;28;20069;-73
2022/09/12 05:26:37;;;;;;;2.80;1.55;;;21.80;54.30;;;;;;20625295;28;20053;-71
2022/09/12 05:36:38;;;;;;;2.35;1.17;;;21.80;54.10;;;;;;20641559;28;20026;-73
2022/09/12 05:46:42;;;;;;;4.03;1.38;;;21.80;54.00;;;;;;20647500;28;20041;-70
2022/09/12 05:56:43;;;;;;;1.87;1.17;;;21.90;53.90;;;;;;20609307;28;20129;-70
2022/09/12 06:06:44;;;;;;;2.40;1.65;;;21.90;53.80;;;;;;20604195;28;20536;-70
2022/09/12 06:16:45;;;;;;;2.13;1.35;;;21.90;53.80;;;;;;20639344;28;20057;-69
2022/09/12 06:26:47;;;;;;;2.00;1.42;;;21.90;53.70;;;;;;20639236;28;20137;-69
2022/09/12 06:36:48;;;;;;;1.33;1.17;;;21.90;53.80;;;;;;20611854;28;20030;-70
2022/09/12 06:46:48;;;;;;;2.03;1.20;;;21.90;53.80;;;;;;20611085;28;20038;-70
2022/09/12 06:56:49;;;;;;;1.58;0.95;;;21.90;53.90;;;;;;20567209;28;20035;-70
2022/09/12 07:06:49;;;;;;;2.30;1.40;;;21.90;54.00;;;;;;20630778;28;20046;-71
2022/09/12 07:16:50;;;;;;;2.00;1.15;;;21.90;54.10;;;;;;20647745;28;20297;-70
2022/09/12 07:26:51;;;;;;;1.90;1.35;;;21.90;54.20;;;;;;20647242;28;20121;-70
2022/09/12 07:36:51;;;;;;;2.58;1.40;;;21.90;54.30;;;;;;20606220;28;20031;-73
2022/09/12 07:46:52;;;;;;;3.07;1.50;;;21.90;54.30;;;;;;20592610;28;20105;-73
2022/09/12 07:56:52;;;;;;;2.17;1.50;;;22.00;54.40;;;;;;20661376;28;20652;-72
2022/09/12 08:06:53;;;;;;;2.25;1.20;;;22.00;54.40;;;;;;20592737;28;20409;-72
2022/09/12 08:16:54;;;;;;;1.77;1.20;;;22.00;54.50;;;;;;20667858;28;20480;-74
2022/09/12 08:26:54;;;;;;;2.13;1.43;;;22.00;54.50;;;;;;20628273;28;20038;-71
2022/09/12 08:36:55;;;;;;;1.77;1.13;;;22.10;54.50;;;;;;20660512;28;20396;-71
2022/09/12 08:47:08;;;;;;;1.83;1.37;;;22.20;54.40;;;;;;20627564;28;20057;-70
2022/09/12 08:57:10;;;;;;;2.25;1.25;;;22.30;54.30;;;;;;20623054;28;20038;-71
2022/09/12 09:07:17;;;;;;;1.63;1.20;;;22.40;54.20;;;;;;20643010;28;20145;-72
2022/09/12 09:17:19;;;;;;;2.30;1.30;;;22.50;53.90;;;;;;20658201;28;20042;-71
2022/09/12 09:27:29;;;;;;;1.33;0.93;;;22.50;54.40;;;;;;20641617;28;20497;-72
2022/09/12 09:38:07;;;;;;;1.25;0.90;;;22.60;53.60;;;;;;20618950;28;20034;-71
2022/09/12 09:48:18;;;;;;;1.38;0.93;;;22.70;53.50;;;;;;20591894;28;20051;-70
2022/09/12 09:58:30;;;;;;;2.08;1.00;;;22.80;53.40;;;;;;20590552;28;20042;-71
2022/09/12 10:08:34;;;;;;;2.00;1.17;;;22.90;53.20;;;;;;20562998;28;20035;-69
2022/09/12 10:18:39;;;;;;;2.08;1.00;;;23.00;53.10;;;;;;20543197;28;20438;-71
2022/09/12 10:28:52;;;;;;;1.27;1.00;;;23.00;52.90;;;;;;20527396;28;20050;-69
2022/09/12 10:38:56;;;;;;;2.03;1.02;;;23.00;52.80;;;;;;20549990;28;20057;-70
2022/09/12 10:49:26;;;;;;;1.37;0.80;;;23.00;52.60;;;;;;20556071;28;20448;-72
2022/09/12 10:59:43;;;;;;;1.02;0.65;;;23.10;52.40;;;;;;20586115;28;20500;-71
2022/09/12 11:10:00;;;;;;;1.80;0.80;;;23.20;52.40;;;;;;20620788;28;20038;-73
2022/09/12 11:20:19;;;;;;;1.10;0.90;;;23.20;52.20;;;;;;20551095;28;20035;-72
2022/09/12 11:30:20;;;;;;;0.98;0.73;;;23.20;52.10;;;;;;20584566;28;20053;-75
2022/09/12 11:40:49;;;;;;;1.60;0.90;;;23.20;52.00;;;;;;20584804;28;20030;-74
2022/09/12 11:50:49;;;;;;;1.90;0.93;;;23.30;52.70;;;;;;20583728;28;20047;-73
2022/09/12 12:00:52;;;;;;;1.20;0.73;;;23.30;52.10;;;;;;20567215;28;20082;-74
2022/09/12 12:10:56;;;;;;;1.38;0.70;;;23.30;52.00;;;;;;20534126;28;20030;-74
2022/09/12 12:21:35;;;;;;;1.08;0.80;;;23.30;52.00;;;;;;20549205;28;20042;-74
2022/09/12 12:31:58;;;;;;;1.30;0.73;;;23.30;52.10;;;;;;20580567;28;20050;-70
2022/09/12 12:41:59;;;;;;;0.80;0.60;;;23.30;52.10;;;;;;20563744;28;20483;-70
2022/09/12 12:52:02;;;;;;;1.10;0.80;;;23.30;52.20;;;;;;20548984;28;20113;-75
2022/09/12 13:02:03;;;;;;;1.45;0.90;;;23.30;52.20;;;;;;20548626;28;20027;-79
2022/09/12 13:12:45;;;;;;;1.10;0.73;;;23.30;52.30;;;;;;20576220;28;20046;-78
2022/09/12 13:22:47;;;;;;;2.35;0.95;;;23.30;52.40;;;;;;20529692;28;20063;-79
2022/09/12 13:32:50;;;;;;;1.95;1.08;;;23.30;52.40;;;;;;20631579;28;20046;-80
2022/09/12 13:43:14;;;;;;;1.23;0.80;;;23.30;52.40;;;;;;20580711;28;20417;-79
2022/09/12 13:53:21;;;;;;;1.17;0.70;;;23.30;52.50;;;;;;20614589;28;20044;-79
2022/09/12 14:13:49;;;;;;;1.10;0.70;;;23.30;52.70;;;;;;20626875;28;20059;-74
2022/09/12 14:23:49;;;;;;;0.98;0.57;;;23.30;53.50;;;;;;20600604;28;20146;-74
2022/09/12 14:33:54;;;;;;;0.82;0.57;;;23.30;52.90;;;;;;20655422;28;20042;-74
2022/09/12 14:43:57;;;;;;;1.00;0.68;;;23.30;53.00;;;;;;20650381;28;20062;-78
2022/09/12 14:53:58;;;;;;;0.90;0.63;;;23.30;53.00;;;;;;20637132;28;20069;-74
2022/09/12 15:03:59;;;;;;;3.50;0.85;;;23.30;53.00;;;;;;20643940;28;20066;-73
2022/09/12 15:14:06;;;;;;;0.43;0.43;;;23.40;53.10;;;;;;20646867;28;20041;-73
2022/09/12 15:24:07;;;;;;;1.52;0.63;;;23.40;53.00;;;;;;20595085;28;20137;-73
2022/09/12 15:34:07;;;;;;;1.35;0.80;;;23.40;53.10;;;;;;20552258;28;20386;-73
2022/09/12 15:44:11;;;;;;;1.83;0.75;;;23.40;53.20;;;;;;20535295;28;20039;-72
2022/09/12 15:54:12;;;;;;;0.60;0.47;;;23.40;53.30;;;;;;20577823;28;20046;-73
2022/09/12 16:04:23;;;;;;;1.33;0.70;;;23.40;53.40;;;;;;20645921;28;20041;-76
2022/09/12 16:14:24;;;;;;;1.17;0.63;;;23.30;53.60;;;;;;20646981;28;20034;-77
2022/09/12 16:24:25;;;;;;;1.10;0.70;;;23.20;53.70;;;;;;20647180;28;20041;-77
2022/09/12 16:34:25;;;;;;;1.63;0.80;;;23.10;53.80;;;;;;20644802;28;20125;-76
2022/09/12 16:44:26;;;;;;;1.30;0.73;;;23.10;54.00;;;;;;20643884;28;20042;-76
2022/09/12 16:54:26;;;;;;;1.55;0.77;;;23.10;54.20;;;;;;20650666;28;20364;-76
2022/09/12 17:04:27;;;;;;;0.60;0.50;;;23.00;54.20;;;;;;20641178;28;20042;-77
2022/09/12 17:14:27;;;;;;;1.45;0.77;;;23.00;54.40;;;;;;20655923;28;20049;-77
2022/09/12 17:24:28;;;;;;;1.00;0.60;;;23.00;54.60;;;;;;20584499;28;20039;-77
2022/09/12 17:34:29;;;;;;;0.93;0.80;;;22.90;54.60;;;;;;20560850;28;20038;-77
2022/09/12 17:44:29;;;;;;;1.77;1.02;;;22.90;54.80;;;;;;20558469;28;20035;-77
2022/09/12 17:54:30;;;;;;;1.15;0.77;;;22.80;54.90;;;;;;20585455;28;20034;-77
2022/09/12 18:04:31;;;;;;;1.20;0.77;;;22.80;55.20;;;;;;20559131;28;20122;-78
2022/09/12 18:14:32;;;;;;;0.82;0.63;;;22.80;55.10;;;;;;20558805;28;20051;-77
2022/09/12 18:24:32;;;;;;;1.13;0.77;;;22.80;55.20;;;;;;20575140;28;20035;-78
2022/09/12 18:34:33;;;;;;;1.70;0.80;;;22.70;55.20;;;;;;20573109;28;20047;-80
2022/09/12 18:44:34;;;;;;;1.33;0.75;;;22.70;55.30;;;;;;20569919;28;20060;-79
2022/09/12 18:54:36;;;;;;;1.55;1.00;;;22.80;55.50;;;;;;20588927;28;20057;-82
2022/09/12 19:04:36;;;;;;;2.30;0.68;;;22.70;55.50;;;;;;20564465;28;20129;-77
2022/09/12 19:14:37;;;;;;;1.20;0.85;;;22.70;55.60;;;;;;20630809;28;20062;-76
2022/09/12 19:24:39;;;;;;;3.47;1.05;;;22.70;55.70;;;;;;20567763;28;20031;-77
2022/09/12 19:34:39;;;;;;;1.00;0.70;;;22.70;55.70;;;;;;20570138;28;20066;-79
2022/09/12 19:44:40;;;;;;;1.92;1.10;;;22.70;55.80;;;;;;20587269;28;20054;-77
2022/09/12 19:54:40;;;;;;;1.92;1.15;;;22.70;55.80;;;;;;20570256;28;20038;-78
2022/09/12 20:04:41;;;;;;;1.63;0.70;;;22.70;55.70;;;;;;20569317;28;20043;-78
2022/09/12 20:14:41;;;;;;;1.13;0.80;;;22.70;55.60;;;;;;20568082;28;20063;-79
2022/09/12 20:24:42;;;;;;;1.45;0.90;;;22.70;55.60;;;;;;20583173;28;20049;-78
2022/09/12 20:34:43;;;;;;;1.50;0.63;;;22.70;55.50;;;;;;20551013;28;20093;-78
2022/09/12 20:44:43;;;;;;;0.98;0.73;;;22.80;55.50;;;;;;20549742;28;20058;-79
2022/09/12 20:54:44;;;;;;;1.33;0.70;;;22.80;55.50;;;;;;20534061;28;20114;-79
2022/09/12 21:04:44;;;;;;;1.90;0.90;;;22.70;55.40;;;;;;20549991;28;20434;-79
2022/09/12 21:14:45;;;;;;;1.23;1.05;;;22.80;55.40;;;;;;20547763;28;20508;-77
2022/09/12 21:24:45;;;;;;;0.70;0.57;;;22.80;55.40;;;;;;20564041;28;20114;-78
2022/09/12 21:34:46;;;;;;;1.05;0.90;;;22.80;55.40;;;;;;20563506;28;20294;-79
2022/09/12 21:44:47;;;;;;;0.95;0.73;;;22.80;55.30;;;;;;20547796;28;20460;-78
2022/09/12 21:54:47;;;;;;;1.00;0.82;;;22.70;55.30;;;;;;20564419;28;20074;-78
2022/09/12 22:04:48;;;;;;;1.08;1.00;;;22.70;55.30;;;;;;20563767;28;20038;-78
2022/09/12 22:14:49;;;;;;;1.10;0.85;;;22.70;55.30;;;;;;20564751;28;20038;-78
2022/09/12 22:24:50;;;;;;;2.08;0.93;;;22.70;55.20;;;;;;20548004;28;20064;-78
2022/09/12 22:34:50;;;;;;;1.45;0.82;;;22.70;55.20;;;;;;20576765;28;20042;-78
2022/09/12 22:44:51;;;;;;;1.42;0.73;;;22.70;55.20;;;;;;20591497;28;20089;-79
2022/09/12 22:54:52;;;;;;;0.63;0.57;;;22.70;55.20;;;;;;20543375;28;20070;-79
2022/09/12 23:04:52;;;;;;;1.70;1.17;;;22.70;55.20;;;;;;20557784;28;20121;-80
2022/09/12 23:14:53;;;;;;;1.83;1.10;;;22.60;55.10;;;;;;20540304;28;20034;-78
2022/09/12 23:24:54;;;;;;;1.60;0.90;;;22.60;55.10;;;;;;20589863;28;20688;-79
2022/09/12 23:34:54;;;;;;;2.17;1.10;;;22.70;55.10;;;;;;20571502;28;20125;-78
2022/09/12 23:44:55;;;;;;;1.55;1.00;;;22.60;55.00;;;;;;20555279;28;20042;-78
2022/09/12 23:54:56;;;;;;;1.65;0.93;;;22.60;55.00;;;;;;20569988;28;20041;-79
